sensor_id;sensor_type;location;lat;lon;timestamp;temperature;humidity
70051;SHT30;57391;51.306;22.680;2023-03-23T00:01:28;10.26;67.55
70051;SHT30;57391;51.306;22.680;2023-03-23T00:03:58;10.25;67.61
70051;SHT30;57391;51.306;22.680;2023-03-23T00:06:26;10.25;67.67
70051;SHT30;57391;51.306;22.680;2023-03-23T00:08:59;10.24;67.74
70051;SHT30;57391;51.306;22.680;2023-03-23T00:11:30;10.23;67.92
70051;SHT30;57391;51.306;22.680;2023-03-23T00:13:59;10.24;68.02
70051;SHT30;57391;51.306;22.680;2023-03-23T00:16:29;10.26;68.09
70051;SHT30;57391;51.306;22.680;2023-03-23T00:19:00;10.26;68.10
70051;SHT30;57391;51.306;22.680;2023-03-23T00:21:32;10.27;68.17
70051;SHT30;57391;51.306;22.680;2023-03-23T00:24:07;10.28;68.24
70051;SHT30;57391;51.306;22.680;2023-03-23T00:26:46;10.30;68.30
70051;SHT30;57391;51.306;22.680;2023-03-23T00:29:17;10.31;68.34
70051;SHT30;57391;51.306;22.680;2023-03-23T00:31:50;10.33;68.38
70051;SHT30;57391;51.306;22.680;2023-03-23T00:34:19;10.34;68.44
70051;SHT30;57391;51.306;22.680;2023-03-23T00:36:51;10.36;68.47
70051;SHT30;57391;51.306;22.680;2023-03-23T00:39:23;10.37;68.48
70051;SHT30;57391;51.306;22.680;2023-03-23T00:41:53;10.39;68.47
70051;SHT30;57391;51.306;22.680;2023-03-23T00:44:27;10.40;68.48
70051;SHT30;57391;51.306;22.680;2023-03-23T00:46:57;10.40;68.42
70051;SHT30;57391;51.306;22.680;2023-03-23T00:49:26;10.41;68.40
70051;SHT30;57391;51.306;22.680;2023-03-23T00:51:57;10.41;68.40
70051;SHT30;57391;51.306;22.680;2023-03-23T00:54:26;10.41;68.40
70051;SHT30;57391;51.306;22.680;2023-03-23T00:56:56;10.41;68.40
70051;SHT30;57391;51.306;22.680;2023-03-23T00:59:23;10.42;68.41
70051;SHT30;57391;51.306;22.680;2023-03-23T01:01:51;10.40;68.49
70051;SHT30;57391;51.306;22.680;2023-03-23T01:04:18;10.39;68.49
70051;SHT30;57391;51.306;22.680;2023-03-23T01:06:48;10.38;68.50
70051;SHT30;57391;51.306;22.680;2023-03-23T01:09:18;10.37;68.51
70051;SHT30;57391;51.306;22.680;2023-03-23T01:11:49;10.35;68.55
70051;SHT30;57391;51.306;22.680;2023-03-23T01:14:18;10.33;68.59
70051;SHT30;57391;51.306;22.680;2023-03-23T01:16:45;10.31;68.61
70051;SHT30;57391;51.306;22.680;2023-03-23T01:19:12;10.29;68.66
70051;SHT30;57391;51.306;22.680;2023-03-23T01:21:41;10.26;68.69
70051;SHT30;57391;51.306;22.680;2023-03-23T01:24:08;10.24;68.76
70051;SHT30;57391;51.306;22.680;2023-03-23T01:26:36;10.24;68.80
70051;SHT30;57391;51.306;22.680;2023-03-23T01:29:04;10.24;68.83
70051;SHT30;57391;51.306;22.680;2023-03-23T01:31:31;10.23;68.88
70051;SHT30;57391;51.306;22.680;2023-03-23T01:33:58;10.21;68.90
70051;SHT30;57391;51.306;22.680;2023-03-23T01:36:26;10.19;68.93
70051;SHT30;57391;51.306;22.680;2023-03-23T01:39:01;10.17;69.00
70051;SHT30;57391;51.306;22.680;2023-03-23T01:41:31;10.14;69.06
70051;SHT30;57391;51.306;22.680;2023-03-23T01:44:04;10.11;69.13
70051;SHT30;57391;51.306;22.680;2023-03-23T01:46:43;10.07;69.22
70051;SHT30;57391;51.306;22.680;2023-03-23T01:49:12;10.06;69.32
70051;SHT30;57391;51.306;22.680;2023-03-23T01:51:47;10.04;69.39
70051;SHT30;57391;51.306;22.680;2023-03-23T01:54:22;10.02;69.53
70051;SHT30;57391;51.306;22.680;2023-03-23T01:56:56;10.02;69.63
70051;SHT30;57391;51.306;22.680;2023-03-23T01:59:37;10.00;69.75
70051;SHT30;57391;51.306;22.680;2023-03-23T02:02:17;10.00;69.82
70051;SHT30;57391;51.306;22.680;2023-03-23T02:04:49;9.99;69.87
70051;SHT30;57391;51.306;22.680;2023-03-23T02:07:18;9.99;69.93
70051;SHT30;57391;51.306;22.680;2023-03-23T02:09:52;10.01;70.04
70051;SHT30;57391;51.306;22.680;2023-03-23T02:12:19;10.01;70.14
70051;SHT30;57391;51.306;22.680;2023-03-23T02:14:47;10.04;70.19
70051;SHT30;57391;51.306;22.680;2023-03-23T02:28:31;10.08;70.25
70051;SHT30;57391;51.306;22.680;2023-03-23T02:31:10;10.08;70.28
70051;SHT30;57391;51.306;22.680;2023-03-23T02:33:45;10.08;70.27
70051;SHT30;57391;51.306;22.680;2023-03-23T02:36:29;10.08;70.29
70051;SHT30;57391;51.306;22.680;2023-03-23T02:39:09;10.09;70.26
70051;SHT30;57391;51.306;22.680;2023-03-23T02:41:49;10.08;70.24
70051;SHT30;57391;51.306;22.680;2023-03-23T02:44:24;10.08;70.24
70051;SHT30;57391;51.306;22.680;2023-03-23T02:46:57;10.08;70.21
70051;SHT30;57391;51.306;22.680;2023-03-23T02:49:28;10.08;70.20
70051;SHT30;57391;51.306;22.680;2023-03-23T02:52:02;10.06;70.20
70051;SHT30;57391;51.306;22.680;2023-03-23T02:54:38;10.05;70.21
70051;SHT30;57391;51.306;22.680;2023-03-23T02:57:11;10.05;70.20
70051;SHT30;57391;51.306;22.680;2023-03-23T02:59:41;10.04;70.20
70051;SHT30;57391;51.306;22.680;2023-03-23T03:04:54;10.04;70.15
70051;SHT30;57391;51.306;22.680;2023-03-23T03:07:43;10.03;70.18
70051;SHT30;57391;51.306;22.680;2023-03-23T03:13:11;9.99;70.24
70051;SHT30;57391;51.306;22.680;2023-03-23T03:15:53;9.98;70.28
70051;SHT30;57391;51.306;22.680;2023-03-23T03:18:30;9.97;70.30
70051;SHT30;57391;51.306;22.680;2023-03-23T03:21:09;9.96;70.32
70051;SHT30;57391;51.306;22.680;2023-03-23T03:23:42;9.94;70.40
70051;SHT30;57391;51.306;22.680;2023-03-23T03:26:11;9.92;70.46
70051;SHT30;57391;51.306;22.680;2023-03-23T03:28:49;9.92;70.51
70051;SHT30;57391;51.306;22.680;2023-03-23T03:31:20;9.90;70.53
70051;SHT30;57391;51.306;22.680;2023-03-23T03:33:56;9.90;70.56
70051;SHT30;57391;51.306;22.680;2023-03-23T03:36:29;9.89;70.59
70051;SHT30;57391;51.306;22.680;2023-03-23T03:39:05;9.87;70.60
70051;SHT30;57391;51.306;22.680;2023-03-23T03:41:36;9.86;70.65
70051;SHT30;57391;51.306;22.680;2023-03-23T03:44:05;9.84;70.70
70051;SHT30;57391;51.306;22.680;2023-03-23T03:46:33;9.83;70.76
70051;SHT30;57391;51.306;22.680;2023-03-23T03:49:03;9.82;70.80
70051;SHT30;57391;51.306;22.680;2023-03-23T03:51:34;9.81;70.82
70051;SHT30;57391;51.306;22.680;2023-03-23T03:54:03;9.79;70.86
70051;SHT30;57391;51.306;22.680;2023-03-23T03:56:30;9.80;70.87
70051;SHT30;57391;51.306;22.680;2023-03-23T03:59:35;9.79;70.87
70051;SHT30;57391;51.306;22.680;2023-03-23T04:02:12;9.79;70.90
70051;SHT30;57391;51.306;22.680;2023-03-23T04:04:43;9.79;70.91
70051;SHT30;57391;51.306;22.680;2023-03-23T04:07:10;9.80;70.93
70051;SHT30;57391;51.306;22.680;2023-03-23T04:09:38;9.80;70.96
70051;SHT30;57391;51.306;22.680;2023-03-23T04:12:05;9.80;70.96
70051;SHT30;57391;51.306;22.680;2023-03-23T04:14:51;9.80;71.01
70051;SHT30;57391;51.306;22.680;2023-03-23T04:17:19;9.80;71.00
70051;SHT30;57391;51.306;22.680;2023-03-23T04:19:47;9.80;71.00
70051;SHT30;57391;51.306;22.680;2023-03-23T04:22:15;9.81;71.02
70051;SHT30;57391;51.306;22.680;2023-03-23T04:24:43;9.81;71.06
70051;SHT30;57391;51.306;22.680;2023-03-23T04:27:14;9.82;71.04
70051;SHT30;57391;51.306;22.680;2023-03-23T04:29:41;9.83;71.06
70051;SHT30;57391;51.306;22.680;2023-03-23T04:32:28;9.85;71.04
70051;SHT30;57391;51.306;22.680;2023-03-23T04:34:57;9.85;71.02
70051;SHT30;57391;51.306;22.680;2023-03-23T04:37:33;9.85;71.04
70051;SHT30;57391;51.306;22.680;2023-03-23T04:40:01;9.86;71.01
70051;SHT30;57391;51.306;22.680;2023-03-23T04:42:34;9.86;71.00
70051;SHT30;57391;51.306;22.680;2023-03-23T04:45:22;9.87;71.00
70051;SHT30;57391;51.306;22.680;2023-03-23T04:47:51;9.88;70.92
70051;SHT30;57391;51.306;22.680;2023-03-23T04:50:28;9.88;70.90
70051;SHT30;57391;51.306;22.680;2023-03-23T04:53:02;9.89;70.90
70051;SHT30;57391;51.306;22.680;2023-03-23T04:55:32;9.89;70.85
70051;SHT30;57391;51.306;22.680;2023-03-23T04:58:05;9.90;70.80
70051;SHT30;57391;51.306;22.680;2023-03-23T05:00:52;9.91;70.75
70051;SHT30;57391;51.306;22.680;2023-03-23T05:03:20;9.91;70.70
70051;SHT30;57391;51.306;22.680;2023-03-23T05:05:50;9.92;70.70
70051;SHT30;57391;51.306;22.680;2023-03-23T05:08:20;9.94;70.66
70051;SHT30;57391;51.306;22.680;2023-03-23T05:10:55;9.94;70.62
70051;SHT30;57391;51.306;22.680;2023-03-23T05:13:25;9.95;70.60
70051;SHT30;57391;51.306;22.680;2023-03-23T05:15:55;9.95;70.59
70051;SHT30;57391;51.306;22.680;2023-03-23T05:18:23;9.97;70.52
70051;SHT30;57391;51.306;22.680;2023-03-23T05:20:52;10.00;70.48
70051;SHT30;57391;51.306;22.680;2023-03-23T05:23:22;10.02;70.47
70051;SHT30;57391;51.306;22.680;2023-03-23T05:25:56;10.05;70.41
70051;SHT30;57391;51.306;22.680;2023-03-23T05:28:27;10.08;70.31
70051;SHT30;57391;51.306;22.680;2023-03-23T05:31:03;10.14;70.26
70051;SHT30;57391;51.306;22.680;2023-03-23T05:33:32;10.26;70.09
70051;SHT30;57391;51.306;22.680;2023-03-23T05:36:05;10.63;69.54
70051;SHT30;57391;51.306;22.680;2023-03-23T05:38:50;11.09;68.52
70051;SHT30;57391;51.306;22.680;2023-03-23T05:41:18;11.62;67.73
70051;SHT30;57391;51.306;22.680;2023-03-23T05:43:46;12.08;66.71
70051;SHT30;57391;51.306;22.680;2023-03-23T05:46:33;12.74;65.50
70051;SHT30;57391;51.306;22.680;2023-03-23T05:49:00;13.01;64.54
70051;SHT30;57391;51.306;22.680;2023-03-23T05:51:33;13.07;63.94
70051;SHT30;57391;51.306;22.680;2023-03-23T05:54:00;13.00;63.55
70051;SHT30;57391;51.306;22.680;2023-03-23T05:56:28;12.91;63.83
70051;SHT30;57391;51.306;22.680;2023-03-23T05:59:26;12.86;63.60
70051;SHT30;57391;51.306;22.680;2023-03-23T06:01:54;12.82;63.49
70051;SHT30;57391;51.306;22.680;2023-03-23T06:04:21;12.80;63.35
70051;SHT30;57391;51.306;22.680;2023-03-23T06:07:09;12.81;63.30
70051;SHT30;57391;51.306;22.680;2023-03-23T06:09:41;12.84;63.69
70051;SHT30;57391;51.306;22.680;2023-03-23T06:12:33;12.89;63.48
70051;SHT30;57391;51.306;22.680;2023-03-23T06:15:06;12.92;63.18
70051;SHT30;57391;51.306;22.680;2023-03-23T06:18:00;13.02;63.13
70051;SHT30;57391;51.306;22.680;2023-03-23T06:20:45;13.15;62.69
70051;SHT30;57391;51.306;22.680;2023-03-23T06:23:27;13.22;62.46
70051;SHT30;57391;51.306;22.680;2023-03-23T06:25:56;13.25;62.21
70051;SHT30;57391;51.306;22.680;2023-03-23T06:28:30;13.27;61.82
70051;SHT30;57391;51.306;22.680;2023-03-23T06:31:01;13.27;61.72
70051;SHT30;57391;51.306;22.680;2023-03-23T06:33:33;13.26;61.56
70051;SHT30;57391;51.306;22.680;2023-03-23T06:36:22;13.24;61.55
70051;SHT30;57391;51.306;22.680;2023-03-23T06:39:13;13.25;61.10
70051;SHT30;57391;51.306;22.680;2023-03-23T06:41:50;13.26;61.43
70051;SHT30;57391;51.306;22.680;2023-03-23T06:44:18;13.28;61.36
70051;SHT30;57391;51.306;22.680;2023-03-23T06:46:45;13.31;60.97
70051;SHT30;57391;51.306;22.680;2023-03-23T06:49:17;13.33;61.03
70051;SHT30;57391;51.306;22.680;2023-03-23T06:51:50;13.36;60.82
70051;SHT30;57391;51.306;22.680;2023-03-23T06:54:18;13.41;60.67
70051;SHT30;57391;51.306;22.680;2023-03-23T06:56:45;13.45;60.79
70051;SHT30;57391;51.306;22.680;2023-03-23T06:59:12;13.48;60.52
70051;SHT30;57391;51.306;22.680;2023-03-23T07:01:40;13.55;60.58
70051;SHT30;57391;51.306;22.680;2023-03-23T07:04:07;13.65;60.94
70051;SHT30;57391;51.306;22.680;2023-03-23T07:06:40;13.76;60.15
70051;SHT30;57391;51.306;22.680;2023-03-23T07:09:08;13.90;60.30
70051;SHT30;57391;51.306;22.680;2023-03-23T07:11:35;14.00;59.73
70051;SHT30;57391;51.306;22.680;2023-03-23T07:14:10;14.07;59.56
70051;SHT30;57391;51.306;22.680;2023-03-23T07:16:40;14.08;59.28
70051;SHT30;57391;51.306;22.680;2023-03-23T07:19:08;14.07;59.13
70051;SHT30;57391;51.306;22.680;2023-03-23T07:21:35;14.01;58.85
70051;SHT30;57391;51.306;22.680;2023-03-23T07:24:03;13.96;59.09
70051;SHT30;57391;51.306;22.680;2023-03-23T07:26:43;13.91;58.91
70051;SHT30;57391;51.306;22.680;2023-03-23T07:29:10;13.88;59.05
70051;SHT30;57391;51.306;22.680;2023-03-23T07:31:41;13.86;59.36
70051;SHT30;57391;51.306;22.680;2023-03-23T07:34:11;13.87;59.53
70051;SHT30;57391;51.306;22.680;2023-03-23T07:37:07;13.87;59.45
70051;SHT30;57391;51.306;22.680;2023-03-23T07:39:36;13.85;59.40
70051;SHT30;57391;51.306;22.680;2023-03-23T07:42:04;13.84;59.38
70051;SHT30;57391;51.306;22.680;2023-03-23T07:44:42;13.84;59.63
70051;SHT30;57391;51.306;22.680;2023-03-23T07:47:11;13.85;59.48
70051;SHT30;57391;51.306;22.680;2023-03-23T07:49:38;13.87;59.84
70051;SHT30;57391;51.306;22.680;2023-03-23T07:52:18;13.95;59.94
70051;SHT30;57391;51.306;22.680;2023-03-23T07:54:46;14.04;59.82
70051;SHT30;57391;51.306;22.680;2023-03-23T07:57:40;14.19;59.78
70051;SHT30;57391;51.306;22.680;2023-03-23T08:00:07;14.33;59.55
70051;SHT30;57391;51.306;22.680;2023-03-23T08:02:42;14.45;59.45
70051;SHT30;57391;51.306;22.680;2023-03-23T08:05:29;14.57;59.26
70051;SHT30;57391;51.306;22.680;2023-03-23T08:08:15;14.66;58.93
70051;SHT30;57391;51.306;22.680;2023-03-23T08:11:09;14.73;58.74
70051;SHT30;57391;51.306;22.680;2023-03-23T08:13:54;14.79;58.52
70051;SHT30;57391;51.306;22.680;2023-03-23T08:16:53;14.85;57.92
70051;SHT30;57391;51.306;22.680;2023-03-23T08:19:41;14.87;57.65
70051;SHT30;57391;51.306;22.680;2023-03-23T08:22:27;14.91;58.04
70051;SHT30;57391;51.306;22.680;2023-03-23T08:25:31;14.98;57.55
70051;SHT30;57391;51.306;22.680;2023-03-23T08:28:18;14.99;56.91
70051;SHT30;57391;51.306;22.680;2023-03-23T08:31:10;14.99;57.12
70051;SHT30;57391;51.306;22.680;2023-03-23T08:33:52;15.01;56.79
70051;SHT30;57391;51.306;22.680;2023-03-23T08:36:31;15.02;56.67
70051;SHT30;57391;51.306;22.680;2023-03-23T08:39:38;15.06;57.14
70051;SHT30;57391;51.306;22.680;2023-03-23T08:42:17;15.11;57.00
70051;SHT30;57391;51.306;22.680;2023-03-23T08:45:11;15.20;57.40
70051;SHT30;57391;51.306;22.680;2023-03-23T08:48:02;15.27;57.05
70051;SHT30;57391;51.306;22.680;2023-03-23T08:50:47;15.32;56.96
70051;SHT30;57391;51.306;22.680;2023-03-23T08:53:19;15.38;57.12
70051;SHT30;57391;51.306;22.680;2023-03-23T08:56:08;15.43;56.18
70051;SHT30;57391;51.306;22.680;2023-03-23T08:59:06;15.42;56.64
70051;SHT30;57391;51.306;22.680;2023-03-23T09:02:00;15.44;56.59
70051;SHT30;57391;51.306;22.680;2023-03-23T09:04:41;15.45;56.40
70051;SHT30;57391;51.306;22.680;2023-03-23T09:07:38;15.45;56.60
70051;SHT30;57391;51.306;22.680;2023-03-23T09:10:07;15.46;57.05
70051;SHT30;57391;51.306;22.680;2023-03-23T09:12:36;15.49;56.63
70051;SHT30;57391;51.306;22.680;2023-03-23T09:15:04;15.51;56.68
70051;SHT30;57391;51.306;22.680;2023-03-23T09:17:36;15.51;56.33
70051;SHT30;57391;51.306;22.680;2023-03-23T09:20:08;15.52;56.46
70051;SHT30;57391;51.306;22.680;2023-03-23T09:22:45;15.54;56.60
70051;SHT30;57391;51.306;22.680;2023-03-23T09:25:17;15.57;56.74
70051;SHT30;57391;51.306;22.680;2023-03-23T09:27:52;15.59;56.42
70051;SHT30;57391;51.306;22.680;2023-03-23T09:30:27;15.62;56.64
70051;SHT30;57391;51.306;22.680;2023-03-23T09:32:57;15.65;56.63
70051;SHT30;57391;51.306;22.680;2023-03-23T09:35:28;15.69;56.53
70051;SHT30;57391;51.306;22.680;2023-03-23T09:37:58;15.68;55.88
70051;SHT30;57391;51.306;22.680;2023-03-23T09:41:01;15.64;55.61
70051;SHT30;57391;51.306;22.680;2023-03-23T09:43:44;15.59;56.08
70051;SHT30;57391;51.306;22.680;2023-03-23T09:52:11;15.73;56.55
70051;SHT30;57391;51.306;22.680;2023-03-23T09:54:52;15.80;56.44
70051;SHT30;57391;51.306;22.680;2023-03-23T10:02:46;15.99;55.66
70051;SHT30;57391;51.306;22.680;2023-03-23T10:08:09;16.15;55.46
70051;SHT30;57391;51.306;22.680;2023-03-23T10:10:50;16.22;54.97
70051;SHT30;57391;51.306;22.680;2023-03-23T10:16:55;16.39;54.53
70051;SHT30;57391;51.306;22.680;2023-03-23T10:22:57;16.45;54.47
70051;SHT30;57391;51.306;22.680;2023-03-23T10:25:34;16.51;54.47
70051;SHT30;57391;51.306;22.680;2023-03-23T10:28:19;16.55;54.28
70051;SHT30;57391;51.306;22.680;2023-03-23T10:31:02;16.63;54.66
70051;SHT30;57391;51.306;22.680;2023-03-23T10:33:40;16.69;54.37
70051;SHT30;57391;51.306;22.680;2023-03-23T10:39:23;16.77;53.12
70051;SHT30;57391;51.306;22.680;2023-03-23T10:41:59;16.79;53.17
70051;SHT30;57391;51.306;22.680;2023-03-23T10:44:33;16.81;53.10
70051;SHT30;57391;51.306;22.680;2023-03-23T10:47:02;16.84;53.25
70051;SHT30;57391;51.306;22.680;2023-03-23T10:49:53;16.87;53.33
70051;SHT30;57391;51.306;22.680;2023-03-23T10:54:57;16.91;53.61
70051;SHT30;57391;51.306;22.680;2023-03-23T10:57:39;16.94;53.96
70051;SHT30;57391;51.306;22.680;2023-03-23T11:00:23;16.94;53.37
70051;SHT30;57391;51.306;22.680;2023-03-23T11:08:24;17.02;53.59
70051;SHT30;57391;51.306;22.680;2023-03-23T11:13:58;17.12;53.50
70051;SHT30;57391;51.306;22.680;2023-03-23T11:16:42;17.16;53.36
70051;SHT30;57391;51.306;22.680;2023-03-23T11:19:26;17.21;53.53
70051;SHT30;57391;51.306;22.680;2023-03-23T11:24:32;17.32;52.75
70051;SHT30;57391;51.306;22.680;2023-03-23T11:27:09;17.35;52.32
70051;SHT30;57391;51.306;22.680;2023-03-23T11:29:47;17.41;52.56
70051;SHT30;57391;51.306;22.680;2023-03-23T11:32:18;17.47;52.47
70051;SHT30;57391;51.306;22.680;2023-03-23T11:34:59;17.49;52.26
70051;SHT30;57391;51.306;22.680;2023-03-23T11:37:35;17.50;52.31
70051;SHT30;57391;51.306;22.680;2023-03-23T11:42:44;17.48;51.86
70051;SHT30;57391;51.306;22.680;2023-03-23T11:45:19;17.47;51.66
70051;SHT30;57391;51.306;22.680;2023-03-23T11:48:21;17.47;51.91
70051;SHT30;57391;51.306;22.680;2023-03-23T11:50:54;17.49;52.02
70051;SHT30;57391;51.306;22.680;2023-03-23T11:53:53;17.52;51.58
70051;SHT30;57391;51.306;22.680;2023-03-23T11:56:27;17.53;51.17
70051;SHT30;57391;51.306;22.680;2023-03-23T11:59:03;17.55;51.78
70051;SHT30;57391;51.306;22.680;2023-03-23T12:04:56;17.56;51.40
70051;SHT30;57391;51.306;22.680;2023-03-23T12:16:00;17.44;51.42
70051;SHT30;57391;51.306;22.680;2023-03-23T12:22:54;17.36;51.93
70051;SHT30;57391;51.306;22.680;2023-03-23T12:34:27;17.36;52.38
70051;SHT30;57391;51.306;22.680;2023-03-23T12:45:55;17.58;51.17
70051;SHT30;57391;51.306;22.680;2023-03-23T12:57:35;18.15;49.47
70051;SHT30;57391;51.306;22.680;2023-03-23T13:03:03;18.39;49.22
70051;SHT30;57391;51.306;22.680;2023-03-23T13:05:42;18.52;48.72
70051;SHT30;57391;51.306;22.680;2023-03-23T13:08:34;18.62;47.81
70051;SHT30;57391;51.306;22.680;2023-03-23T13:11:10;18.70;47.64
70051;SHT30;57391;51.306;22.680;2023-03-23T13:13:53;18.79;47.20
70051;SHT30;57391;51.306;22.680;2023-03-23T13:16:31;18.87;47.51
70051;SHT30;57391;51.306;22.680;2023-03-23T13:19:29;18.93;45.95
70051;SHT30;57391;51.306;22.680;2023-03-23T13:25:13;18.92;44.93
70051;SHT30;57391;51.306;22.680;2023-03-23T13:27:55;18.93;45.17
70051;SHT30;57391;51.306;22.680;2023-03-23T13:30:25;18.92;44.82
70051;SHT30;57391;51.306;22.680;2023-03-23T13:33:02;18.91;45.04
70051;SHT30;57391;51.306;22.680;2023-03-23T13:35:39;18.91;44.69
70051;SHT30;57391;51.306;22.680;2023-03-23T13:38:27;18.93;44.36
70051;SHT30;57391;51.306;22.680;2023-03-23T13:40:56;18.97;44.23
70051;SHT30;57391;51.306;22.680;2023-03-23T13:43:28;19.03;44.41
70051;SHT30;57391;51.306;22.680;2023-03-23T13:46:07;19.12;44.35
70051;SHT30;57391;51.306;22.680;2023-03-23T13:48:46;19.27;44.86
70051;SHT30;57391;51.306;22.680;2023-03-23T13:51:26;19.44;44.12
70051;SHT30;57391;51.306;22.680;2023-03-23T14:03:11;19.49;43.23
70051;SHT30;57391;51.306;22.680;2023-03-23T14:06:01;19.41;43.17
70051;SHT30;57391;51.306;22.680;2023-03-23T14:08:44;19.34;42.87
70051;SHT30;57391;51.306;22.680;2023-03-23T14:13:51;19.19;43.03
70051;SHT30;57391;51.306;22.680;2023-03-23T14:16:42;19.13;43.60
70051;SHT30;57391;51.306;22.680;2023-03-23T14:21:56;18.99;43.57
70051;SHT30;57391;51.306;22.680;2023-03-23T14:24:30;18.92;43.84
70051;SHT30;57391;51.306;22.680;2023-03-23T14:27:12;18.86;44.39
70051;SHT30;57391;51.306;22.680;2023-03-23T14:29:44;18.81;44.49
70051;SHT30;57391;51.306;22.680;2023-03-23T14:32:16;18.74;44.41
70051;SHT30;57391;51.306;22.680;2023-03-23T14:34:51;18.68;44.50
70051;SHT30;57391;51.306;22.680;2023-03-23T14:37:20;18.62;44.98
70051;SHT30;57391;51.306;22.680;2023-03-23T14:39:49;18.58;45.42
70051;SHT30;57391;51.306;22.680;2023-03-23T14:42:23;18.52;45.57
70051;SHT30;57391;51.306;22.680;2023-03-23T14:44:57;18.47;45.73
70051;SHT30;57391;51.306;22.680;2023-03-23T14:47:28;18.42;46.20
70051;SHT30;57391;51.306;22.680;2023-03-23T14:50:05;18.38;46.22
70051;SHT30;57391;51.306;22.680;2023-03-23T14:52:50;18.32;46.39
70051;SHT30;57391;51.306;22.680;2023-03-23T14:55:19;18.29;46.58
70051;SHT30;57391;51.306;22.680;2023-03-23T14:57:49;18.25;46.73
70051;SHT30;57391;51.306;22.680;2023-03-23T15:00:25;18.23;46.75
70051;SHT30;57391;51.306;22.680;2023-03-23T15:03:01;18.16;47.22
70051;SHT30;57391;51.306;22.680;2023-03-23T15:05:34;18.13;47.43
70051;SHT30;57391;51.306;22.680;2023-03-23T15:08:06;18.10;47.53
70051;SHT30;57391;51.306;22.680;2023-03-23T15:10:41;18.07;47.80
70051;SHT30;57391;51.306;22.680;2023-03-23T15:13:18;18.04;48.17
70051;SHT30;57391;51.306;22.680;2023-03-23T15:15:45;18.02;48.33
70051;SHT30;57391;51.306;22.680;2023-03-23T15:21:19;17.97;48.03
70051;SHT30;57391;51.306;22.680;2023-03-23T15:25:17;17.94;47.60
70051;SHT30;57391;51.306;22.680;2023-03-23T15:27:53;17.95;47.61
70051;SHT30;57391;51.306;22.680;2023-03-23T15:30:35;17.97;47.70
70051;SHT30;57391;51.306;22.680;2023-03-23T15:33:15;17.97;47.51
70051;SHT30;57391;51.306;22.680;2023-03-23T15:35:45;17.97;47.47
70051;SHT30;57391;51.306;22.680;2023-03-23T15:41:03;17.98;47.33
70051;SHT30;57391;51.306;22.680;2023-03-23T15:43:50;17.98;47.09
70051;SHT30;57391;51.306;22.680;2023-03-23T15:46:26;17.98;46.97
70051;SHT30;57391;51.306;22.680;2023-03-23T15:51:37;18.00;46.52
70051;SHT30;57391;51.306;22.680;2023-03-23T15:54:07;18.00;46.65
70051;SHT30;57391;51.306;22.680;2023-03-23T15:56:40;17.99;46.36
70051;SHT30;57391;51.306;22.680;2023-03-23T15:59:12;17.98;46.55
70051;SHT30;57391;51.306;22.680;2023-03-23T16:01:40;17.96;46.36
70051;SHT30;57391;51.306;22.680;2023-03-23T16:04:11;17.95;46.32
70051;SHT30;57391;51.306;22.680;2023-03-23T16:06:44;17.94;46.18
70051;SHT30;57391;51.306;22.680;2023-03-23T16:09:16;17.93;46.43
70051;SHT30;57391;51.306;22.680;2023-03-23T16:11:47;17.93;46.53
70051;SHT30;57391;51.306;22.680;2023-03-23T16:14:15;17.91;46.56
70051;SHT30;57391;51.306;22.680;2023-03-23T16:16:46;17.89;46.81
70051;SHT30;57391;51.306;22.680;2023-03-23T16:19:18;17.87;46.78
70051;SHT30;57391;51.306;22.680;2023-03-23T16:21:49;17.86;46.98
70051;SHT30;57391;51.306;22.680;2023-03-23T16:24:16;17.82;47.55
70051;SHT30;57391;51.306;22.680;2023-03-23T16:26:46;17.77;47.65
70051;SHT30;57391;51.306;22.680;2023-03-23T16:29:16;17.75;47.66
70051;SHT30;57391;51.306;22.680;2023-03-23T16:31:43;17.70;48.10
70051;SHT30;57391;51.306;22.680;2023-03-23T16:34:10;17.65;48.25
70051;SHT30;57391;51.306;22.680;2023-03-23T16:36:38;17.61;48.34
70051;SHT30;57391;51.306;22.680;2023-03-23T16:39:05;17.56;48.50
70051;SHT30;57391;51.306;22.680;2023-03-23T16:41:42;17.52;48.88
70051;SHT30;57391;51.306;22.680;2023-03-23T16:44:11;17.46;49.31
70051;SHT30;57391;51.306;22.680;2023-03-23T16:46:38;17.40;49.80
70051;SHT30;57391;51.306;22.680;2023-03-23T16:49:06;17.34;50.11
70051;SHT30;57391;51.306;22.680;2023-03-23T16:51:34;17.27;50.46
70051;SHT30;57391;51.306;22.680;2023-03-23T16:54:01;17.19;50.69
70051;SHT30;57391;51.306;22.680;2023-03-23T16:56:28;17.13;50.91
70051;SHT30;57391;51.306;22.680;2023-03-23T16:58:56;17.06;51.08
70051;SHT30;57391;51.306;22.680;2023-03-23T17:01:23;17.01;51.34
70051;SHT30;57391;51.306;22.680;2023-03-23T17:03:50;16.95;51.52
70051;SHT30;57391;51.306;22.680;2023-03-23T17:06:17;16.91;51.33
70051;SHT30;57391;51.306;22.680;2023-03-23T17:08:44;16.86;51.44
70051;SHT30;57391;51.306;22.680;2023-03-23T17:11:12;16.81;51.36
70051;SHT30;57391;51.306;22.680;2023-03-23T17:13:39;16.78;51.68
70051;SHT30;57391;51.306;22.680;2023-03-23T17:16:12;16.73;51.64
70051;SHT30;57391;51.306;22.680;2023-03-23T17:18:40;16.69;51.78
70051;SHT30;57391;51.306;22.680;2023-03-23T17:21:07;16.66;52.12
70051;SHT30;57391;51.306;22.680;2023-03-23T17:23:35;16.60;52.27
70051;SHT30;57391;51.306;22.680;2023-03-23T17:26:02;16.54;52.44
70051;SHT30;57391;51.306;22.680;2023-03-23T17:28:30;16.51;52.63
70051;SHT30;57391;51.306;22.680;2023-03-23T17:31:05;16.47;52.79
70051;SHT30;57391;51.306;22.680;2023-03-23T17:33:35;16.42;53.01
70051;SHT30;57391;51.306;22.680;2023-03-23T17:36:02;16.39;53.04
70051;SHT30;57391;51.306;22.680;2023-03-23T17:38:29;16.35;53.24
70051;SHT30;57391;51.306;22.680;2023-03-23T17:52:47;16.14;54.13
70051;SHT30;57391;51.306;22.680;2023-03-23T17:55:15;16.13;54.25
70051;SHT30;57391;51.306;22.680;2023-03-23T17:57:43;16.11;54.26
70051;SHT30;57391;51.306;22.680;2023-03-23T18:00:11;16.10;54.25
70051;SHT30;57391;51.306;22.680;2023-03-23T18:02:40;16.08;54.25
70051;SHT30;57391;51.306;22.680;2023-03-23T18:05:07;16.05;54.36
70051;SHT30;57391;51.306;22.680;2023-03-23T18:07:41;16.03;54.58
70051;SHT30;57391;51.306;22.680;2023-03-23T18:10:16;16.00;54.80
70051;SHT30;57391;51.306;22.680;2023-03-23T18:12:43;15.95;55.00
70051;SHT30;57391;51.306;22.680;2023-03-23T18:15:15;15.92;55.17
70051;SHT30;57391;51.306;22.680;2023-03-23T18:17:43;15.89;55.32
70051;SHT30;57391;51.306;22.680;2023-03-23T18:20:17;15.87;55.36
70051;SHT30;57391;51.306;22.680;2023-03-23T18:22:45;15.85;55.38
70051;SHT30;57391;51.306;22.680;2023-03-23T18:25:16;15.84;55.59